Weather at Paraparaumu Airport

Public forecast

Using degrees Celsius for public forecast. Weather courtesy of forecast.io.

Closest aviation weather report (METAR) to Paraparaumu Airport

Closest report is Wellington International Airport, 26.7 nm (49.4 km) SSW. Retrieved 2021/01/18 13:30 UTC (2 minutes ago):

NZWN 181330Z AUTO 34016G28KT 290V010 9999 SCT020/// 17/14 Q1000 NOSIG

Closest aviation forecast (TAF) to Paraparaumu Airport

Closest forecast is Wellington International Airport, 26.7 nm (49.4 km) SSW. Retrieved 2021/01/18 12:00 UTC (2 hours ago):

TAF NZWN 181155Z 1812/1912 34024G38KT 9999 SCT025 BECMG 1812/1814 34018G28KT PROB40 TEMPO 1812/1816 7000 SHRA BECMG 1822/1900 34030G45KT PROB40 TEMPO 1901/1906 34035G55KT TEMPO 1904/1908 5000 SHRA BKN014 FEW020TCU BECMG 1909/1911 34020G35KT